Time;durP1;ratioP1;P1;durP2;ratioP2;P2;SDS_P1;SDS_P2;PMS_P1;PMS_P2;Temp;Humidity;BMP_temperature;BMP_pressure;BME280_temperature;BME280_humidity;BME280_pressure;Samples;Min_cycle;Max_cycle;Signal;HPM_P1;HPM_P2
2021/07/21 00:00:58;;;;;;;9.70;4.97;;;;;;;14.86;75.16;100496.09;1672760;86;21054;-92
2021/07/21 00:03:23;;;;;;;6.47;4.70;;;;;;;14.82;75.18;100494.69;1672162;86;20997;-90
2021/07/21 00:05:49;;;;;;;7.65;5.92;;;;;;;14.78;75.40;100492.78;1672884;86;21435;-91
2021/07/21 00:08:16;;;;;;;7.10;5.75;;;;;;;14.77;75.40;100494.23;1673033;86;20994;-91
2021/07/21 00:10:44;;;;;;;9.10;6.08;;;;;;;14.71;75.50;100501.44;1672197;86;21053;-92
2021/07/21 00:13:30;;;;;;;9.18;6.40;;;;;;;14.68;75.65;100500.38;1645286;86;21117;-93
2021/07/21 00:15:56;;;;;;;9.03;5.90;;;;;;;14.63;75.73;100510.05;1663893;86;21646;-90
2021/07/21 00:18:26;;;;;;;7.58;5.40;;;;;;;14.59;75.86;100505.14;1648838;86;21084;-91
2021/07/21 00:20:48;;;;;;;7.50;6.00;;;;;;;14.58;76.14;100504.31;1644788;87;21053;-92
2021/07/21 00:23:16;;;;;;;10.10;5.78;;;;;;;14.58;76.10;100507.42;1646006;87;21025;-90
2021/07/21 00:25:42;;;;;;;10.03;5.75;;;;;;;14.55;76.16;100503.25;1662034;86;21017;-91
2021/07/21 00:28:08;;;;;;;6.72;5.62;;;;;;;14.53;76.27;100502.52;1673649;86;21036;-93
2021/07/21 00:30:34;;;;;;;8.83;6.10;;;;;;;14.49;76.45;100503.25;1673060;85;21001;-91
2021/07/21 00:32:59;;;;;;;7.92;5.92;;;;;;;14.47;76.44;100501.69;1672251;86;21101;-88
2021/07/21 00:35:25;;;;;;;10.32;6.12;;;;;;;14.46;76.51;100507.48;1672240;86;21029;-92
2021/07/21 00:37:51;;;;;;;12.18;5.67;;;;;;;14.45;76.73;100501.00;1672089;86;21056;-91
2021/07/21 00:40:18;;;;;;;6.85;6.08;;;;;;;14.43;76.73;100512.23;1672281;86;21519;-92
2021/07/21 00:42:45;;;;;;;12.13;6.40;;;;;;;14.39;76.62;100498.87;1672226;86;21013;-92
2021/07/21 00:45:12;;;;;;;8.48;7.03;;;;;;;14.35;76.95;100496.97;1672508;86;21006;-94
2021/07/21 00:47:39;;;;;;;9.90;6.70;;;;;;;14.35;76.86;100496.97;1672033;86;21128;-90
2021/07/21 00:50:08;;;;;;;11.10;7.45;;;;;;;14.31;77.16;100497.72;1672113;86;21047;-90
2021/07/21 00:52:40;;;;;;;8.88;6.15;;;;;;;14.26;77.32;100498.58;1672156;86;21013;-90
2021/07/21 00:55:09;;;;;;;8.50;6.37;;;;;;;14.22;77.28;100498.50;1672201;86;20982;-90
2021/07/21 00:57:37;;;;;;;9.03;6.25;;;;;;;14.19;77.37;100496.10;1672361;86;21487;-91
2021/07/21 01:00:08;;;;;;;8.20;6.60;;;;;;;14.16;77.56;100500.34;1673883;86;21033;-90
2021/07/21 01:02:34;;;;;;;10.45;7.03;;;;;;;14.15;77.75;100496.47;1672023;86;21493;-91
2021/07/21 01:05:01;;;;;;;9.68;5.85;;;;;;;14.15;77.85;100495.14;1672696;86;21052;-92
2021/07/21 01:07:27;;;;;;;8.38;6.28;;;;;;;14.08;77.58;100497.02;1673650;85;21025;-90
2021/07/21 01:09:53;;;;;;;11.97;6.70;;;;;;;14.05;77.75;100493.78;1673595;86;20978;-91
2021/07/21 01:12:34;;;;;;;8.95;6.65;;;;;;;14.03;78.10;100492.58;1673609;85;21024;-94
2021/07/21 01:15:17;;;;;;;11.30;6.30;;;;;;;14.00;78.12;100491.50;1673276;86;21021;-90
2021/07/21 01:18:03;;;;;;;8.55;6.53;;;;;;;13.99;78.30;100497.79;1672494;86;21112;-88
2021/07/21 01:21:15;;;;;;;10.43;6.42;;;;;;;13.99;78.46;100500.44;1673533;86;21163;-91
2021/07/21 01:24:01;;;;;;;9.15;6.70;;;;;;;13.97;78.33;100495.73;1672686;85;21061;-90
2021/07/21 01:26:33;;;;;;;9.35;6.15;;;;;;;13.95;78.50;100492.85;1672356;86;21056;-91
2021/07/21 01:29:02;;;;;;;8.58;6.62;;;;;;;13.94;78.56;100491.18;1673210;86;21033;-90
2021/07/21 01:31:38;;;;;;;8.65;5.72;;;;;;;13.91;78.74;100493.59;1673190;86;21575;-88
2021/07/21 01:34:09;;;;;;;9.63;7.28;;;;;;;13.89;78.79;100498.70;1672065;86;21014;-88
2021/07/21 01:36:42;;;;;;;10.23;6.97;;;;;;;13.85;78.71;100494.11;1672036;86;21001;-89
2021/07/21 01:39:15;;;;;;;9.10;6.67;;;;;;;13.84;78.86;100496.41;1673689;86;20998;-90
2021/07/21 01:41:48;;;;;;;9.80;6.35;;;;;;;13.83;78.69;100499.55;1673579;85;20989;-88
2021/07/21 01:44:25;;;;;;;9.53;6.92;;;;;;;13.83;78.98;100492.09;1672725;86;21023;-92
2021/07/21 01:46:56;;;;;;;11.80;7.72;;;;;;;13.81;79.05;100499.31;1673507;86;21033;-90
2021/07/21 01:49:27;;;;;;;9.03;6.33;;;;;;;13.79;79.40;100491.99;1673519;86;21049;-91
2021/07/21 01:51:54;;;;;;;15.72;7.30;;;;;;;13.79;79.35;100496.80;1673574;86;21048;-92
2021/07/21 01:54:20;;;;;;;11.80;8.23;;;;;;;13.77;79.29;100488.61;1646416;86;21032;-91
2021/07/21 01:56:47;;;;;;;9.85;7.08;;;;;;;13.75;79.34;100491.37;1671870;86;21524;-91
2021/07/21 01:59:13;;;;;;;12.55;6.97;;;;;;;13.76;79.42;100489.59;1672103;86;21108;-91
2021/07/21 02:01:42;;;;;;;10.03;6.47;;;;;;;13.75;79.48;100483.42;1672085;86;21074;-89
2021/07/21 02:04:07;;;;;;;10.23;6.80;;;;;;;13.75;79.56;100487.89;1672155;86;21551;-91
2021/07/21 02:06:35;;;;;;;10.03;6.92;;;;;;;13.74;79.58;100487.55;1672133;86;21045;-91
2021/07/21 02:09:07;;;;;;;11.75;7.45;;;;;;;13.72;79.69;100489.47;1672200;86;21013;-90
2021/07/21 02:11:33;;;;;;;10.37;7.77;;;;;;;13.70;79.80;100496.73;1672709;86;21029;-89
2021/07/21 02:14:03;;;;;;;12.88;7.80;;;;;;;13.68;79.77;100489.38;1673340;85;21014;-91
2021/07/21 02:16:30;;;;;;;11.12;7.90;;;;;;;13.67;79.94;100493.00;1672775;86;21045;-87
2021/07/21 02:18:59;;;;;;;11.88;7.50;;;;;;;13.67;80.06;100493.00;1673059;86;21103;-91
2021/07/21 02:21:26;;;;;;;9.33;6.53;;;;;;;13.64;79.98;100497.23;1673076;86;21091;-90
2021/07/21 02:23:53;;;;;;;12.50;7.50;;;;;;;13.59;80.08;100497.63;1672554;86;21045;-90
2021/07/21 02:26:21;;;;;;;13.85;7.40;;;;;;;13.55;80.29;100498.82;1672412;85;21077;-89
2021/07/21 02:28:47;;;;;;;12.43;8.43;;;;;;;13.48;80.31;100495.83;1673414;85;21092;-89
2021/07/21 02:31:27;;;;;;;11.03;7.47;;;;;;;13.46;80.40;100500.89;1673568;85;21109;-93
2021/07/21 02:34:03;;;;;;;10.65;7.00;;;;;;;13.45;80.69;100507.17;1672876;86;21504;-90
2021/07/21 02:36:28;;;;;;;11.20;7.42;;;;;;;13.43;80.72;100508.64;1645934;86;21084;-90
2021/07/21 02:38:54;;;;;;;12.75;7.42;;;;;;;13.40;80.87;100499.61;1672106;86;21053;-90
2021/07/21 02:41:20;;;;;;;11.33;6.15;;;;;;;13.38;80.94;100503.69;1672251;86;21074;-89
2021/07/21 02:43:46;;;;;;;14.43;8.18;;;;;;;13.37;80.87;100506.48;1672130;86;21034;-90
2021/07/21 02:46:12;;;;;;;9.20;6.87;;;;;;;13.36;81.16;100510.11;1672773;86;21558;-92
2021/07/21 02:48:43;;;;;;;10.43;6.58;;;;;;;13.33;81.27;100511.69;1672145;85;21006;-91
2021/07/21 02:51:26;;;;;;;9.30;7.33;;;;;;;13.31;81.35;100517.09;1672126;86;21507;-90
2021/07/21 02:54:04;;;;;;;11.63;6.78;;;;;;;13.29;81.40;100509.77;1672033;86;21042;-90
2021/07/21 02:56:33;;;;;;;11.30;7.90;;;;;;;13.30;81.50;100517.23;1667915;86;21065;-90
2021/07/21 02:59:05;;;;;;;9.35;6.78;;;;;;;13.29;81.42;100516.84;1671962;85;21040;-90
2021/07/21 03:01:35;;;;;;;9.63;6.37;;;;;;;13.26;81.59;100515.77;1672053;86;21076;-89
2021/07/21 03:04:02;;;;;;;10.18;7.00;;;;;;;13.24;81.91;100521.21;1673616;86;21009;-89
2021/07/21 03:06:30;;;;;;;10.88;7.58;;;;;;;13.19;81.84;100522.02;1673467;85;21009;-88
2021/07/21 03:08:57;;;;;;;9.30;7.50;;;;;;;13.16;82.00;100524.91;1673819;86;21013;-90
2021/07/21 03:11:23;;;;;;;11.48;8.05;;;;;;;13.14;82.07;100532.99;1673115;86;21125;-90
2021/07/21 03:13:58;;;;;;;10.28;7.12;;;;;;;13.14;82.27;100528.19;1673321;86;20983;-89
2021/07/21 03:16:32;;;;;;;8.45;6.53;;;;;;;13.12;82.42;100529.61;1672441;86;21507;-88
2021/07/21 03:19:02;;;;;;;10.80;6.92;;;;;;;13.13;82.57;100537.95;1668973;85;21049;-90
2021/07/21 03:21:29;;;;;;;9.05;6.70;;;;;;;13.13;82.47;100526.02;1673461;86;21028;-89
2021/07/21 03:23:55;;;;;;;13.62;7.62;;;;;;;13.13;82.48;100540.59;1673482;85;21001;-91
2021/07/21 03:26:21;;;;;;;13.48;7.50;;;;;;;13.14;82.66;100542.75;1673372;85;21061;-91
2021/07/21 03:28:53;;;;;;;10.38;7.22;;;;;;;13.12;82.80;100544.67;1672457;86;21053;-91
2021/07/21 03:31:19;;;;;;;14.18;7.92;;;;;;;13.09;82.86;100535.16;1668361;85;21068;-90
2021/07/21 03:33:51;;;;;;;8.50;6.67;;;;;;;13.09;82.90;100539.13;1669002;86;21022;-89
2021/07/21 03:36:18;;;;;;;10.28;6.87;;;;;;;13.08;83.09;100540.11;1672339;85;21100;-90
2021/07/21 03:38:44;;;;;;;10.53;7.40;;;;;;;13.10;83.09;100546.63;1673219;85;21591;-89
2021/07/21 03:41:10;;;;;;;10.38;7.65;;;;;;;13.08;83.19;100547.21;1673642;86;21089;-88
2021/07/21 03:43:37;;;;;;;8.38;6.87;;;;;;;13.06;83.23;100546.03;1672681;86;21040;-89
2021/07/21 03:46:04;;;;;;;10.45;7.33;;;;;;;13.08;83.42;100544.56;1672414;86;21092;-88
2021/07/21 03:48:30;;;;;;;10.75;8.05;;;;;;;13.09;83.35;100549.72;1672373;85;21359;-90
2021/07/21 03:50:59;;;;;;;9.38;6.95;;;;;;;13.08;83.41;100546.73;1673256;86;21052;-86
2021/07/21 03:53:26;;;;;;;10.40;8.10;;;;;;;13.07;83.38;100551.67;1673316;85;21097;-88
2021/07/21 03:55:52;;;;;;;13.08;7.45;;;;;;;13.07;83.61;100553.00;1673519;85;21045;-89
2021/07/21 03:58:18;;;;;;;9.65;7.15;;;;;;;13.09;83.65;100548.89;1671856;86;21001;-88
2021/07/21 04:00:44;;;;;;;11.55;7.87;;;;;;;13.09;83.56;100556.84;1673098;86;21599;-90
2021/07/21 04:03:11;;;;;;;10.35;7.42;;;;;;;13.10;83.68;100558.55;1672125;86;21088;-88
2021/07/21 04:05:38;;;;;;;9.20;7.00;;;;;;;13.12;84.04;100560.08;1673135;86;21012;-88
2021/07/21 04:08:05;;;;;;;10.13;7.95;;;;;;;13.11;83.97;100561.06;1673553;85;21033;-90
2021/07/21 04:10:31;;;;;;;12.82;7.67;;;;;;;13.12;84.23;100562.73;1673007;85;20985;-89
2021/07/21 04:13:02;;;;;;;12.75;7.37;;;;;;;13.13;84.17;100564.92;1672004;86;21666;-91
2021/07/21 04:15:29;;;;;;;13.88;8.15;;;;;;;13.14;84.09;100568.77;1673500;85;21060;-91
2021/07/21 04:17:58;;;;;;;11.28;8.23;;;;;;;13.16;84.44;100567.30;1672624;86;21029;-90
2021/07/21 04:20:26;;;;;;;14.65;9.03;;;;;;;13.15;84.30;100571.77;1671936;86;21004;-90
2021/07/21 04:22:55;;;;;;;10.60;7.83;;;;;;;13.18;84.63;100564.55;1644735;86;21132;-90
2021/07/21 04:25:23;;;;;;;13.35;7.75;;;;;;;13.18;84.86;100571.17;1671904;86;21002;-90
2021/07/21 04:27:49;;;;;;;11.20;8.03;;;;;;;13.17;84.59;100574.80;1672094;86;20981;-90
2021/07/21 04:30:16;;;;;;;11.53;8.08;;;;;;;13.18;84.65;100572.50;1673557;86;21501;-87
2021/07/21 04:32:42;;;;;;;14.15;8.90;;;;;;;13.21;85.02;100574.91;1672446;86;21072;-90
2021/07/21 04:35:13;;;;;;;11.43;8.00;;;;;;;13.21;85.08;100573.09;1672113;86;21014;-90
2021/07/21 04:37:40;;;;;;;10.25;8.08;;;;;;;13.24;84.93;100574.20;1671843;86;21041;-90
2021/07/21 04:40:12;;;;;;;9.73;8.00;;;;;;;13.28;85.01;100574.80;1671845;86;21062;-89
2021/07/21 04:42:38;;;;;;;12.18;9.25;;;;;;;13.29;85.00;100581.32;1671679;85;21044;-91
2021/07/21 04:45:06;;;;;;;11.75;7.53;;;;;;;13.31;85.21;100583.34;1672480;86;21056;-83
2021/07/21 04:47:35;;;;;;;14.20;7.83;;;;;;;13.33;85.07;100588.54;1673463;86;21077;-88
2021/07/21 04:50:08;;;;;;;8.90;7.53;;;;;;;13.35;85.22;100591.89;1673535;85;21603;-88
2021/07/21 04:52:34;;;;;;;10.88;7.70;;;;;;;13.36;85.27;100589.14;1673661;86;21107;-88
2021/07/21 04:55:01;;;;;;;11.10;8.75;;;;;;;13.38;85.42;100592.48;1674663;84;21471;-88
2021/07/21 04:57:27;;;;;;;10.35;7.97;;;;;;;13.42;85.34;100597.55;1673239;86;21021;-91
2021/07/21 04:59:52;;;;;;;10.38;7.42;;;;;;;13.43;85.45;100601.41;1673610;86;21020;-88
2021/07/21 05:02:18;;;;;;;10.72;7.90;;;;;;;13.46;85.53;100603.82;1673266;86;21016;-89
2021/07/21 05:04:44;;;;;;;10.82;7.05;;;;;;;13.51;85.77;100606.09;1672715;86;21034;-89
2021/07/21 05:07:10;;;;;;;12.15;7.20;;;;;;;13.55;85.52;100600.89;1671785;86;21053;-88
2021/07/21 05:09:36;;;;;;;10.00;7.22;;;;;;;13.60;85.60;100602.70;1671979;86;21013;-86
2021/07/21 05:12:03;;;;;;;11.83;8.35;;;;;;;13.66;85.83;100598.72;1671898;86;21507;-87
2021/07/21 05:14:29;;;;;;;10.45;7.45;;;;;;;13.71;85.56;100607.97;1672097;86;21576;-88
2021/07/21 05:16:55;;;;;;;12.33;7.42;;;;;;;13.76;85.72;100603.14;1671938;86;21025;-87
2021/07/21 05:19:21;;;;;;;15.05;8.63;;;;;;;13.81;85.79;100610.72;1671918;86;21108;-88
2021/07/21 05:21:47;;;;;;;13.43;7.90;;;;;;;13.85;85.75;100609.48;1671624;86;21113;-87
2021/07/21 05:24:12;;;;;;;13.38;8.48;;;;;;;13.92;85.95;100609.83;1671969;86;21014;-84
2021/07/21 05:26:41;;;;;;;13.13;8.68;;;;;;;13.96;85.96;100604.65;1671844;86;21069;-88
2021/07/21 05:29:06;;;;;;;10.28;7.35;;;;;;;14.01;85.80;100611.23;1671246;86;21069;-87
2021/07/21 05:31:32;;;;;;;10.90;8.03;;;;;;;14.08;85.99;100610.25;1671870;86;21570;-89
2021/07/21 05:33:58;;;;;;;11.08;7.60;;;;;;;14.13;85.84;100614.70;1672158;86;21078;-89
2021/07/21 05:36:25;;;;;;;9.05;7.80;;;;;;;14.18;85.85;100613.85;1671861;86;21017;-88
2021/07/21 05:38:51;;;;;;;10.43;7.05;;;;;;;14.24;86.01;100613.31;1671699;86;21093;-89
2021/07/21 05:41:17;;;;;;;12.40;8.03;;;;;;;14.30;85.79;100610.15;1671902;86;21100;-87
2021/07/21 05:43:43;;;;;;;11.48;8.33;;;;;;;14.37;86.01;100614.95;1671723;86;21137;-91
2021/07/21 05:46:11;;;;;;;13.25;9.13;;;;;;;14.42;85.79;100611.44;1671991;86;21065;-88
2021/07/21 05:48:37;;;;;;;12.78;7.33;;;;;;;14.48;85.81;100609.59;1672063;86;21069;-86
2021/07/21 05:51:03;;;;;;;9.78;6.87;;;;;;;14.54;85.97;100611.28;1672160;86;21117;-87
2021/07/21 05:53:29;;;;;;;10.08;7.78;;;;;;;14.61;85.78;100616.05;1672311;86;21017;-89
2021/07/21 05:55:55;;;;;;;10.63;8.15;;;;;;;14.67;85.99;100619.02;1671871;86;21084;-88
2021/07/21 05:58:21;;;;;;;13.60;8.03;;;;;;;14.74;85.76;100621.99;1671897;86;21041;-86
2021/07/21 06:00:47;;;;;;;17.75;11.85;;;;;;;14.80;86.01;100626.78;1671883;86;21105;-90
2021/07/21 06:03:18;;;;;;;11.60;8.38;;;;;;;14.87;85.95;100625.77;1671966;86;21117;-89
2021/07/21 06:05:41;;;;;;;10.18;7.97;;;;;;;14.93;86.04;100630.56;1671006;86;21013;-93
2021/07/21 06:08:07;;;;;;;10.43;7.92;;;;;;;15.00;85.93;100629.06;1671783;86;21006;-88
2021/07/21 06:10:33;;;;;;;11.20;6.87;;;;;;;15.07;85.75;100629.37;1671911;86;21069;-87
2021/07/21 06:12:59;;;;;;;9.68;7.75;;;;;;;15.15;86.12;100632.22;1671620;86;21037;-86
2021/07/21 06:15:28;;;;;;;10.30;7.15;;;;;;;15.21;85.84;100624.55;1672124;86;21622;-88
2021/07/21 06:17:53;;;;;;;10.13;6.75;;;;;;;15.28;85.77;100626.19;1671490;86;21419;-88
2021/07/21 06:20:19;;;;;;;8.98;7.37;;;;;;;15.35;85.74;100625.99;1671937;86;21129;-89
2021/07/21 06:22:45;;;;;;;9.75;6.97;;;;;;;15.43;85.81;100630.16;1671843;86;21025;-88
2021/07/21 06:25:11;;;;;;;11.80;7.08;;;;;;;15.50;85.63;100629.13;1672097;86;21017;-89
2021/07/21 06:27:37;;;;;;;12.05;8.15;;;;;;;15.58;85.55;100628.45;1671870;86;21041;-89
2021/07/21 06:30:06;;;;;;;11.55;7.28;;;;;;;15.64;85.41;100634.55;1672097;86;21017;-88
2021/07/21 06:32:36;;;;;;;10.25;6.47;;;;;;;15.70;85.43;100631.38;1671642;86;21568;-87
2021/07/21 06:35:05;;;;;;;10.15;6.87;;;;;;;15.79;85.84;100634.52;1671920;86;21089;-88
2021/07/21 06:37:31;;;;;;;9.63;6.95;;;;;;;15.87;85.39;100640.02;1671960;86;21077;-89
2021/07/21 06:39:57;;;;;;;8.90;6.67;;;;;;;15.94;85.14;100637.64;1671825;86;21018;-88
2021/07/21 06:42:23;;;;;;;9.03;7.08;;;;;;;16.02;85.27;100639.11;1671830;86;21516;-88
2021/07/21 06:44:49;;;;;;;9.38;7.15;;;;;;;16.09;85.16;100642.05;1671974;86;21002;-88
2021/07/21 06:47:15;;;;;;;8.98;6.58;;;;;;;16.16;84.77;100641.88;1672236;86;20981;-87
2021/07/21 06:49:41;;;;;;;11.33;7.05;;;;;;;16.21;84.88;100640.94;1673398;86;21086;-89
2021/07/21 06:52:07;;;;;;;11.15;7.28;;;;;;;16.28;84.86;100637.23;1673237;86;21074;-88
2021/07/21 06:54:33;;;;;;;8.90;7.42;;;;;;;16.37;84.94;100643.05;1673286;86;21049;-88
2021/07/21 06:56:59;;;;;;;9.80;6.20;;;;;;;16.42;84.81;100643.48;1673164;86;21004;-89
2021/07/21 06:59:27;;;;;;;9.78;6.47;;;;;;;16.49;84.90;100647.75;1673036;86;21056;-89
2021/07/21 07:01:52;;;;;;;9.20;6.97;;;;;;;16.56;84.73;100654.19;1673048;85;21068;-88
2021/07/21 07:04:18;;;;;;;10.05;7.37;;;;;;;16.65;84.76;100650.67;1673642;86;21475;-90
2021/07/21 07:06:44;;;;;;;9.65;6.37;;;;;;;16.75;84.55;100659.52;1672975;86;20998;-88
2021/07/21 07:09:10;;;;;;;13.03;9.50;;;;;;;16.84;84.53;100659.97;1654649;84;20993;-90
2021/07/21 07:11:36;;;;;;;12.82;9.18;;;;;;;16.95;84.42;100663.48;1674786;84;21024;-88
2021/07/21 07:14:02;;;;;;;10.23;8.08;;;;;;;17.03;84.44;100655.58;1673305;86;21618;-90
2021/07/21 07:16:28;;;;;;;8.20;6.80;;;;;;;17.12;84.40;100656.05;1673323;86;21017;-86
2021/07/21 07:18:54;;;;;;;10.75;6.75;;;;;;;17.20;83.95;100652.14;1672946;86;21093;-91
2021/07/21 07:21:21;;;;;;;9.53;6.35;;;;;;;17.28;83.83;100655.44;1673108;86;21532;-90
2021/07/21 07:23:49;;;;;;;9.43;6.60;;;;;;;17.35;83.99;100657.36;1673192;86;21530;-91
2021/07/21 07:26:15;;;;;;;7.60;6.50;;;;;;;17.44;83.84;100660.98;1673036;86;21049;-87
2021/07/21 07:28:41;;;;;;;10.88;6.72;;;;;;;17.52;83.39;100654.89;1673393;86;21087;-88
2021/07/21 07:31:07;;;;;;;7.75;6.53;;;;;;;17.60;83.42;100654.98;1672985;86;21039;-87
2021/07/21 07:33:33;;;;;;;9.38;6.00;;;;;;;17.71;83.76;100658.80;1673254;86;21009;-88
2021/07/21 07:35:59;;;;;;;12.45;6.80;;;;;;;17.80;83.41;100655.27;1673126;86;21005;-89
2021/07/21 07:38:25;;;;;;;8.90;6.37;;;;;;;17.91;83.45;100654.70;1656083;86;21096;-90
2021/07/21 07:40:52;;;;;;;8.28;6.30;;;;;;;18.01;82.62;100650.13;1692922;84;21041;-88
2021/07/21 07:43:18;;;;;;;6.03;4.78;;;;;;;18.10;82.78;100648.36;1700794;84;21037;-88
2021/07/21 07:45:44;;;;;;;10.72;6.12;;;;;;;18.17;82.50;100656.97;1701489;84;21062;-91
2021/07/21 07:48:10;;;;;;;9.30;6.15;;;;;;;18.28;82.80;100652.72;1701219;84;20993;-88
2021/07/21 07:50:36;;;;;;;11.30;5.55;;;;;;;18.38;82.43;100655.31;1701582;84;21037;-91
2021/07/21 07:53:02;;;;;;;7.97;5.90;;;;;;;18.47;82.11;100658.91;1701397;84;21092;-89
2021/07/21 07:55:29;;;;;;;8.33;5.35;;;;;;;18.57;81.05;100653.47;1701206;84;21495;-91
2021/07/21 07:57:55;;;;;;;12.58;6.42;;;;;;;18.75;81.41;100659.63;1701011;84;21013;-90
2021/07/21 08:00:21;;;;;;;8.20;6.35;;;;;;;18.75;81.41;100659.63;1701264;84;21041;-89
2021/07/21 08:02:47;;;;;;;9.08;5.92;;;;;;;18.95;81.07;100654.45;1701545;84;20928;-86
2021/07/21 08:05:14;;;;;;;9.18;6.05;;;;;;;18.95;81.07;100654.45;1701358;84;21368;-88
2021/07/21 08:07:40;;;;;;;8.33;6.05;;;;;;;19.11;80.28;100648.33;1700992;84;21001;-88
2021/07/21 08:10:11;;;;;;;7.95;5.62;;;;;;;19.11;80.28;100648.33;1701708;84;21476;-91
2021/07/21 08:12:34;;;;;;;8.95;4.83;;;;;;;19.21;80.34;100653.06;1700376;84;21033;-88
2021/07/21 08:15:00;;;;;;;7.95;5.65;;;;;;;19.18;80.31;100632.01;1701351;84;21471;-87
2021/07/21 08:17:26;;;;;;;7.83;5.17;;;;;;;19.43;80.08;100657.02;1700988;84;21491;-91
2021/07/21 08:19:52;;;;;;;10.48;5.87;;;;;;;19.55;79.45;100644.70;1701456;84;21077;-85
2021/07/21 08:22:17;;;;;;;7.42;5.08;;;;;;;19.63;79.04;100650.07;1701497;84;21052;-87
2021/07/21 08:24:43;;;;;;;7.33;4.70;;;;;;;19.71;78.46;100659.98;1701393;84;21495;-88
2021/07/21 08:27:09;;;;;;;10.32;5.95;;;;;;;19.78;79.29;100656.52;1701346;84;21041;-89
2021/07/21 08:29:35;;;;;;;6.00;4.95;;;;;;;19.91;78.82;100658.73;1701214;84;21202;-88
2021/07/21 08:32:01;;;;;;;6.30;5.00;;;;;;;20.02;77.82;100657.06;1701467;84;21020;-87
2021/07/21 08:34:27;;;;;;;7.85;4.30;;;;;;;20.03;76.45;100660.58;1685376;84;21046;-86
2021/07/21 08:36:53;;;;;;;6.70;4.90;;;;;;;20.00;75.65;100656.38;1672553;85;21007;-88
2021/07/21 08:39:19;;;;;;;7.50;4.65;;;;;;;20.03;76.93;100659.23;1673023;86;20969;-86
2021/07/21 08:41:44;;;;;;;10.28;5.08;;;;;;;20.16;75.93;100651.55;1672844;86;21048;-90
2021/07/21 08:44:15;;;;;;;9.25;4.80;;;;;;;20.23;74.40;100657.09;1656060;86;20990;-87
2021/07/21 08:46:41;;;;;;;7.25;4.60;;;;;;;20.24;74.95;100660.13;1672940;86;21563;-89
2021/07/21 08:49:07;;;;;;;5.97;4.25;;;;;;;20.25;74.67;100665.30;1673258;86;21040;-88
2021/07/21 08:51:35;;;;;;;6.15;4.10;;;;;;;20.23;74.24;100667.80;1673361;86;21056;-90
2021/07/21 08:54:01;;;;;;;4.28;3.45;;;;;;;20.19;74.44;100674.50;1673033;86;21073;-88
2021/07/21 08:56:28;;;;;;;5.35;3.98;;;;;;;20.15;74.59;100668.13;1673142;86;21057;-92
2021/07/21 08:58:55;;;;;;;8.03;5.28;;;;;;;20.16;74.30;100679.69;1672863;86;21028;-89
2021/07/21 09:01:22;;;;;;;5.42;4.37;;;;;;;20.15;73.89;100674.83;1673476;86;20993;-89
2021/07/21 09:03:49;;;;;;;7.90;4.28;;;;;;;20.15;73.69;100672.16;1655524;86;21092;-88
2021/07/21 09:06:15;;;;;;;6.72;4.62;;;;;;;20.17;74.11;100676.50;1673127;86;21029;-89
2021/07/21 09:08:42;;;;;;;11.73;5.90;;;;;;;20.18;74.29;100680.87;1673180;86;21089;-92
2021/07/21 09:11:10;;;;;;;8.98;5.20;;;;;;;20.20;73.77;100684.20;1672848;85;21068;-91
2021/07/21 09:13:38;;;;;;;8.20;4.53;;;;;;;20.21;73.61;100680.55;1673451;86;20993;-89
2021/07/21 09:16:05;;;;;;;6.50;5.50;;;;;;;20.23;73.24;100685.22;1672982;86;21072;-90
2021/07/21 09:18:53;;;;;;;8.00;4.70;;;;;;;20.23;72.74;100680.69;1673350;86;21546;-94
2021/07/21 09:21:25;;;;;;;7.90;4.05;;;;;;;20.27;73.07;100687.90;1673253;86;21053;-94
2021/07/21 09:23:55;;;;;;;5.10;4.05;;;;;;;20.33;73.37;100681.88;1655485;86;21049;-94
2021/07/21 09:26:36;;;;;;;9.28;5.22;;;;;;;20.38;73.86;100681.73;1673433;86;21144;-90
2021/07/21 09:29:02;;;;;;;6.53;3.98;;;;;;;20.46;72.69;100685.41;1673001;86;21021;-89
2021/07/21 09:31:38;;;;;;;7.97;4.47;;;;;;;20.50;72.57;100684.92;1673280;86;21052;-89
2021/07/21 09:34:19;;;;;;;6.65;4.37;;;;;;;20.55;72.91;100685.28;1672948;86;21112;-89
2021/07/21 09:36:46;;;;;;;5.97;3.77;;;;;;;20.61;71.93;100684.61;1645795;87;21041;-91
2021/07/21 09:39:15;;;;;;;7.47;4.37;;;;;;;20.65;70.24;100686.95;1695180;84;21053;-93
2021/07/21 09:41:53;;;;;;;9.03;4.47;;;;;;;20.68;70.91;100682.09;1690184;84;21064;-90
2021/07/21 09:44:30;;;;;;;5.15;4.35;;;;;;;20.69;70.58;100681.08;1673338;86;21026;-89
2021/07/21 09:47:20;;;;;;;8.25;4.00;;;;;;;20.72;70.67;100680.75;1674839;86;21555;-90
2021/07/21 09:49:46;;;;;;;5.83;4.10;;;;;;;20.76;70.14;100679.42;1675187;86;20961;-89
2021/07/21 09:52:25;;;;;;;5.55;4.28;;;;;;;20.78;69.33;100679.24;1675580;86;21144;-86
2021/07/21 09:55:13;;;;;;;8.28;5.33;;;;;;;20.77;69.69;100675.73;1646222;86;20997;-87
2021/07/21 09:57:40;;;;;;;6.62;4.30;;;;;;;20.76;69.44;100676.74;1670762;84;21072;-88
2021/07/21 10:00:25;;;;;;;6.30;3.83;;;;;;;20.76;69.63;100676.74;1673339;86;20989;-90
2021/07/21 10:03:12;;;;;;;5.42;4.42;;;;;;;20.83;69.05;100664.83;1645795;87;21129;-86
2021/07/21 10:06:08;;;;;;;7.55;4.28;;;;;;;20.92;68.57;100666.47;1657533;86;21555;-88
2021/07/21 10:08:44;;;;;;;8.88;6.42;;;;;;;21.07;69.76;100664.77;1672955;86;21092;-87
2021/07/21 10:11:39;;;;;;;7.40;5.20;;;;;;;21.24;69.14;100668.75;1645999;86;21148;-89
2021/07/21 10:14:10;;;;;;;11.25;5.53;;;;;;;21.26;68.45;100676.14;1671241;85;21065;-89
2021/07/21 10:16:52;;;;;;;5.60;4.28;;;;;;;21.20;67.23;100675.48;1672806;86;21044;-88
2021/07/21 10:19:27;;;;;;;10.30;5.03;;;;;;;21.08;66.98;100677.17;1673764;86;21080;-86
2021/07/21 10:21:57;;;;;;;9.23;4.12;;;;;;;20.98;68.01;100671.16;1672816;86;21053;-87
2021/07/21 10:24:27;;;;;;;6.75;4.50;;;;;;;20.94;68.12;100679.22;1673358;86;21044;-89
2021/07/21 10:26:53;;;;;;;6.00;3.75;;;;;;;20.90;66.85;100671.19;1673258;86;21012;-90
2021/07/21 10:29:21;;;;;;;7.53;3.70;;;;;;;20.86;66.69;100673.85;1673606;86;21033;-91
2021/07/21 10:31:47;;;;;;;5.87;4.35;;;;;;;20.83;65.70;100666.17;1673141;86;21036;-87
2021/07/21 10:34:17;;;;;;;5.85;4.17;;;;;;;20.82;66.90;100665.82;1673141;86;21020;-87
2021/07/21 10:36:43;;;;;;;4.53;3.47;;;;;;;20.87;66.95;100663.48;1672917;86;21455;-89
2021/07/21 10:39:19;;;;;;;7.25;3.85;;;;;;;20.93;67.05;100661.97;1673041;86;21041;-89
2021/07/21 10:41:47;;;;;;;5.42;4.42;;;;;;;20.98;66.72;100655.57;1646217;86;21021;-88
2021/07/21 10:44:17;;;;;;;5.50;4.05;;;;;;;21.04;66.57;100658.91;1673251;86;21556;-88
2021/07/21 10:46:49;;;;;;;6.30;4.00;;;;;;;21.06;66.70;100658.25;1673051;86;21084;-88
2021/07/21 10:49:51;;;;;;;6.87;4.47;;;;;;;21.08;65.87;100654.36;1673569;86;21020;-85
2021/07/21 11:00:40;;;;;;;5.47;3.37;;;;;;;21.77;65.48;100645.73;1673157;86;20986;-90
2021/07/21 11:03:23;;;;;;;5.50;3.50;;;;;;;22.01;64.53;100646.08;1670105;85;21144;-87
2021/07/21 11:06:11;;;;;;;5.05;4.03;;;;;;;22.19;64.66;100641.80;1644636;86;21070;-85
2021/07/21 11:08:48;;;;;;;5.70;3.85;;;;;;;22.32;64.22;100646.58;1643360;87;21106;-87
2021/07/21 11:11:21;;;;;;;4.55;3.80;;;;;;;22.37;63.02;100643.66;1656038;86;21024;-93
2021/07/21 11:13:59;;;;;;;5.65;3.83;;;;;;;22.36;61.46;100651.92;1672789;86;21108;-89
2021/07/21 11:16:45;;;;;;;7.55;3.27;;;;;;;22.28;60.75;100651.48;1674088;86;21530;-89
2021/07/21 11:19:39;;;;;;;6.35;3.67;;;;;;;22.15;60.26;100657.94;1659769;86;21096;-90
2021/07/21 11:22:19;;;;;;;4.58;2.95;;;;;;;22.08;60.73;100665.02;1666866;86;20986;-87
2021/07/21 11:25:15;;;;;;;5.85;4.00;;;;;;;21.96;60.27;100656.03;1668548;86;21049;-87
2021/07/21 11:28:02;;;;;;;6.30;3.95;;;;;;;21.89;60.00;100657.76;1673053;86;21124;-87
2021/07/21 11:30:58;;;;;;;5.97;4.08;;;;;;;21.82;59.26;100658.66;1673603;86;21016;-90
2021/07/21 11:33:54;;;;;;;3.70;2.65;;;;;;;21.72;59.61;100661.55;1673034;86;21066;-87
2021/07/21 11:36:48;;;;;;;7.85;3.37;;;;;;;21.60;60.14;100659.75;1673107;86;21618;-85
2021/07/21 11:39:47;;;;;;;4.60;3.45;;;;;;;21.51;60.25;100666.16;1673022;86;21538;-86
2021/07/21 11:42:33;;;;;;;4.62;3.55;;;;;;;21.42;59.75;100662.70;1670786;86;21108;-91